Flight Track Log - Related Links

Times and Time Zones

All times are in EDT time to prevent confusion due to time zone crossing. See the QXE2352 flight status page for this flight to view local times or setup timezone preferences in your user account.


Time Position Orientation Groundspeed Altitude Reporting Facility
EDT Latitude Longitude Course Direction KTS MPH feet Rate Location/Type
Sun 12:16:00 PM 45.8730 -122.0618 72° East  Level FlightAware Approximate
Sun 12:17:00 PM 45.9051 -121.9409 68° East  Level FlightAware Approximate
Sun 12:18:00 PM 45.9393 -121.8210 68° East  Level FlightAware Approximate
Sun 12:19:00 PM 45.9695 -121.6990 72° East  Level FlightAware Approximate
Sun 12:20:00 PM 45.9979 -121.5759 72° East  Level FlightAware Approximate
Sun 12:21:00 PM 46.0326 -121.4562 67° East  Level FlightAware Approximate
Sun 12:22:00 PM 46.0677 -121.3366 67° East  Level FlightAware Approximate
Sun 12:23:00 PM 46.0934 -121.2128 78° East  Level FlightAware Approximate
Sun 12:24:00 PM 46.1196 -121.0887 69° East  Level FlightAware Approximate
Sun 12:25:00 PM 46.1512 -120.9669 69° East  Level FlightAware Approximate
Sun 12:26:00 PM 46.1827 -120.8450 70° East  Level FlightAware Approximate
Sun 12:27:00 PM 46.2140 -120.7230 70° East  Level FlightAware Approximate
Sun 12:28:00 PM 46.2452 -120.6008 70° East  Level FlightAware Approximate
Sun 12:29:00 PM 46.2763 -120.4784 70° East  Level FlightAware Approximate
Sun 12:30:00 PM 46.3073 -120.3559 70° East  Level FlightAware Approximate
Sun 12:31:00 PM 46.3381 -120.2333 70° East  Level FlightAware Approximate
Sun 12:32:00 PM 46.3688 -120.1105 70° East  Level FlightAware Approximate
Sun 12:33:00 PM 46.3993 -119.9877 70° East  Level FlightAware Approximate
Sun 12:34:00 PM 46.4297 -119.8646 70° East  Level FlightAware Approximate
Sun 12:35:00 PM 46.4886 -119.7672 46° Northeast  Level FlightAware Approximate
Sun 12:36:00 PM 46.5513 -119.6731 46° Northeast  Level FlightAware Approximate
Sun 12:37:00 PM 46.6132 -119.5779 47° Northeast  Level FlightAware Approximate
Sun 12:38:00 PM 46.6748 -119.4820 47° Northeast  Level FlightAware Approximate
Sun 12:39:00 PM 46.7364 -119.3861 47° Northeast  Level FlightAware Approximate
Sun 12:40:00 PM 46.7981 -119.2903 47° Northeast  Level FlightAware Approximate
Sun 12:41:00 PM 46.8597 -119.1942 47° Northeast  Level FlightAware Approximate
Sun 12:42:00 PM 46.9160 -119.0915 47° Northeast  Level FlightAware Approximate
Sun 12:43:00 PM 46.9775 -118.9950 47° Northeast  Level FlightAware Approximate
Sun 12:44:00 PM 47.0395 -118.8991 46° Northeast  Level FlightAware Approximate
Sun 12:45:00 PM 47.1026 -118.8046 46° Northeast  Level FlightAware Approximate
Sun 12:46:00 PM 47.1657 -118.7100 45° Northeast  Level FlightAware Approximate
Sun 12:47:00 PM 47.2287 -118.6153 46° Northeast  Level FlightAware Approximate
Sun 12:48:00 PM 47.2885 -118.5160 50° Northeast  Level FlightAware Approximate
Sun 12:49:00 PM 47.3474 -118.4155 48° Northeast  Level FlightAware Approximate
Sun 12:50:00 PM 47.4072 -118.3159 48° Northeast  Level FlightAware Approximate
Sun 12:51:00 PM 47.4334 -118.1919 72° East  Level FlightAware Approximate
Sun 12:52:00 PM 47.4615 -118.0654 72° East  Level FlightAware Approximate
Sun 12:53:00 PM 47.4921 -117.9402 64° Northeast  Level FlightAware Approximate
Sun 12:54:00 PM 47.5251 -117.8162 70° East  Level FlightAware Approximate
Sun 12:55:00 PM 47.5612 -117.6940 67° East  Level FlightAware Approximate
Sun 12:56:00 PM 47.6004 -117.5740 59° Northeast  Level FlightAware Approximate
Sun 12:57:00 PM 47.6167 -117.5333 59° Northeast  Level FlightAware Approximate
Sun 12:58:00 PM 47.6190 -117.5352 59° Northeast  Level Estimated
Sun 12:59:00 PM 47.6167 -117.5333 59° Northeast  Level FlightAware Approximate
Sun 01:00:00 PM 47.6190 -117.5352 59° Northeast  Level Estimated
Sun 01:01:00 PM 47.6167 -117.5333 59° Northeast  Level FlightAware Approximate
Sun 01:02:00 PM 47.6190 -117.5352 59° Northeast  Level Estimated
Sun 01:03:00 PM 47.6167 -117.5333 59° Northeast  Level FlightAware Approximate
Sun 01:04:00 PM 47.6190 -117.5352 59° Northeast  Level Estimated
Sun 01:05:00 PM 47.6167 -117.5333 59° Northeast  Level FlightAware Approximate
Sun 01:06:00 PM 47.6190 -117.5352 59° Northeast  Level Estimated
Sun 01:07:00 PM 47.6167 -117.5333 59° Northeast  Level FlightAware Approximate
Sun 01:08:00 PM 47.6190 -117.5352 59° Northeast  Level Estimated
Sun 01:09:00 PM 47.6167 -117.5333 59° Northeast  Level FlightAware Approximate
Sun 01:10:00 PM 47.6190 -117.5352 59° Northeast  Level Estimated
Sun 01:11:00 PM 47.6167 -117.5333 59° Northeast  Level FlightAware Approximate
Sun 01:12:00 PM 47.6190 -117.5352 59° Northeast  Level Estimated

Login

Don't have an account? Register now (free) for customized features, flight alerts, and more!